createdAt,value
2018-12-20T00:00:23.749Z,86.10
2018-12-20T00:01:23.831Z,85.89
2018-12-20T00:02:23.713Z,86.31
2018-12-20T00:03:23.696Z,86.21
2018-12-20T00:04:23.685Z,86.61
2018-12-20T00:05:23.804Z,86.41
2018-12-20T00:06:23.782Z,87.24
2018-12-20T00:07:23.742Z,87.13
2018-12-20T00:08:23.685Z,87.13
2018-12-20T00:09:23.728Z,86.87
2018-12-20T00:10:23.637Z,87.13
2018-12-20T00:11:23.618Z,87.13
2018-12-20T00:12:23.599Z,87.27
2018-12-20T00:13:23.739Z,87.03
2018-12-20T00:14:29.894Z,87.07
2018-12-20T00:15:23.588Z,86.97
2018-12-20T00:16:23.575Z,87.07
2018-12-20T00:17:23.550Z,86.15
2018-12-20T00:18:23.612Z,86.66
2018-12-20T00:19:23.518Z,86.35
2018-12-20T00:20:23.534Z,86.66
2018-12-20T00:21:23.499Z,86.66
2018-12-20T00:22:23.548Z,87.11
2018-12-20T00:23:23.589Z,87.01
2018-12-20T00:24:23.490Z,87.63
2018-12-20T00:25:23.474Z,87.52
2018-12-20T00:26:23.442Z,87.21
2018-12-20T00:27:23.432Z,86.87
2018-12-20T00:28:23.486Z,86.87
2018-12-20T00:29:23.407Z,87.32
2018-12-20T00:30:23.572Z,86.97
2018-12-20T00:31:23.389Z,87.21
2018-12-20T00:32:23.435Z,87.69
2018-12-20T00:33:23.622Z,87.63
2018-12-20T00:34:23.388Z,87.48
2018-12-20T00:35:23.367Z,87.27
2018-12-20T00:36:23.529Z,87.27
2018-12-20T00:37:23.484Z,87.38
2018-12-20T00:38:23.309Z,87.27
2018-12-20T00:39:23.374Z,87.32
2018-12-20T00:40:23.402Z,87.27
2018-12-20T00:41:23.362Z,87.21
2018-12-20T00:42:23.274Z,87.07
2018-12-20T00:43:23.385Z,86.97
2018-12-20T00:44:23.242Z,87.52
2018-12-20T00:45:23.344Z,87.01
2018-12-20T00:46:23.269Z,87.11
2018-12-20T00:47:23.327Z,87.21
2018-12-20T00:48:23.248Z,87.32
2018-12-20T00:49:23.216Z,87.21
2018-12-20T00:50:23.193Z,87.42
2018-12-20T00:51:23.212Z,87.11
2018-12-20T00:52:23.238Z,87.83
2018-12-20T00:53:23.141Z,87.83
2018-12-20T00:54:23.231Z,87.42
2018-12-20T00:55:23.174Z,87.90
2018-12-20T00:56:23.264Z,87.63
2018-12-20T00:57:23.107Z,87.63
2018-12-20T00:58:23.097Z,88.20
2018-12-20T00:59:23.091Z,88.04
2018-12-20T01:00:23.070Z,88.45
2018-12-20T01:01:23.158Z,88.31
2018-12-20T01:02:23.045Z,87.59
2018-12-20T01:03:23.134Z,87.38
2018-12-20T01:04:23.104Z,87.73
2018-12-20T01:05:23.075Z,87.90
2018-12-20T01:06:23.157Z,87.59
2018-12-20T01:07:23.059Z,88.56
2018-12-20T01:08:23.107Z,88.51
2018-12-20T01:09:23.084Z,88.31
2018-12-20T01:10:23.094Z,88.76
2018-12-20T01:11:23.085Z,88.35
2018-12-20T01:12:22.964Z,88.45
2018-12-20T01:13:22.940Z,88.45
2018-12-20T01:14:22.907Z,88.35
2018-12-20T01:15:22.921Z,88.04
2018-12-20T01:16:22.957Z,87.79
2018-12-20T01:17:22.904Z,88.31
2018-12-20T01:18:22.970Z,88.04
2018-12-20T01:19:22.951Z,88.51
2018-12-20T01:20:22.945Z,88.62
2018-12-20T01:21:22.896Z,88.31
2018-12-20T01:22:22.846Z,88.20
2018-12-20T01:23:22.812Z,88.41
2018-12-20T01:24:22.908Z,88.20
2018-12-20T01:25:22.808Z,87.79
2018-12-20T01:26:22.826Z,87.79
2018-12-20T01:27:22.816Z,87.79
2018-12-20T01:28:22.791Z,87.59
2018-12-20T01:29:22.770Z,87.69
2018-12-20T01:30:22.730Z,87.59
2018-12-20T01:31:22.794Z,87.38
2018-12-20T01:32:22.739Z,87.59
2018-12-20T01:33:22.802Z,87.54
2018-12-20T01:34:22.730Z,87.44
2018-12-20T01:35:22.675Z,87.79
2018-12-20T01:36:22.752Z,87.27
2018-12-20T01:37:22.805Z,87.69
2018-12-20T01:38:22.661Z,87.24
2018-12-20T01:39:22.701Z,87.27
2018-12-20T01:40:22.806Z,87.44
2018-12-20T01:41:22.628Z,87.65
2018-12-20T01:42:22.622Z,87.75
2018-12-20T01:43:22.686Z,87.79
2018-12-20T01:44:22.575Z,87.44
2018-12-20T01:45:22.598Z,87.34
2018-12-20T01:46:22.584Z,87.34
2018-12-20T01:47:22.542Z,87.27
2018-12-20T01:48:22.619Z,87.24
2018-12-20T01:49:22.757Z,87.79
2018-12-20T01:50:22.547Z,87.99
2018-12-20T01:51:22.518Z,87.90
2018-12-20T01:52:22.624Z,87.96
2018-12-20T01:53:22.591Z,87.90
2018-12-20T01:54:22.464Z,87.69
2018-12-20T01:55:22.509Z,87.44
2018-12-20T01:56:22.603Z,88.20
2018-12-20T01:57:22.463Z,88.37
2018-12-20T01:58:22.421Z,88.41
2018-12-20T01:59:22.410Z,87.99
2018-12-20T02:00:22.419Z,87.54
2018-12-20T02:01:22.568Z,87.85
2018-12-20T02:02:22.377Z,87.13
2018-12-20T02:03:22.524Z,87.44
2018-12-20T02:04:22.371Z,87.54
2018-12-20T02:05:22.342Z,87.03
2018-12-20T02:06:22.487Z,87.13
2018-12-20T02:07:22.361Z,87.24
2018-12-20T02:08:22.451Z,86.93
2018-12-20T02:09:22.303Z,86.82
2018-12-20T02:10:22.379Z,86.58
2018-12-20T02:11:22.451Z,86.41
2018-12-20T02:12:22.307Z,86.58
2018-12-20T02:13:22.253Z,86.37
2018-12-20T02:14:22.244Z,86.37
2018-12-20T02:15:22.237Z,86.47
2018-12-20T02:16:22.239Z,87.30
2018-12-20T02:17:22.222Z,86.88
2018-12-20T02:18:22.389Z,87.19
2018-12-20T02:19:22.340Z,86.88
2018-12-20T02:20:22.209Z,87.19
2018-12-20T02:21:22.369Z,87.34
2018-12-20T02:22:22.173Z,87.44
2018-12-20T02:23:22.165Z,87.24
2018-12-20T02:24:22.243Z,86.82
2018-12-20T02:25:22.123Z,86.82
2018-12-20T02:26:22.190Z,87.03
2018-12-20T02:27:22.128Z,86.93
2018-12-20T02:28:22.194Z,87.44
2018-12-20T02:29:22.203Z,87.44
2018-12-20T02:30:22.286Z,87.34
2018-12-20T02:31:22.066Z,87.44
2018-12-20T02:32:22.064Z,87.13
2018-12-20T02:33:22.195Z,87.34
2018-12-20T02:34:22.201Z,87.13
2018-12-20T02:35:22.097Z,87.44
2018-12-20T02:36:22.040Z,87.13
2018-12-20T02:37:22.008Z,87.44
2018-12-20T02:38:22.034Z,87.34
2018-12-20T02:39:22.013Z,87.44
2018-12-20T02:40:22.104Z,86.93
2018-12-20T02:41:21.955Z,87.44
2018-12-20T02:42:21.953Z,87.34
2018-12-20T02:43:21.923Z,87.13
2018-12-20T02:44:21.932Z,87.24
2018-12-20T02:45:21.948Z,87.24
2018-12-20T02:46:21.897Z,87.54
2018-12-20T02:47:21.899Z,87.54
2018-12-20T02:48:21.867Z,86.93
2018-12-20T02:49:22.020Z,87.54
2018-12-20T02:50:21.939Z,86.82
2018-12-20T02:51:21.883Z,86.93
2018-12-20T02:52:21.920Z,86.93
2018-12-20T02:53:21.993Z,87.38
2018-12-20T02:54:21.829Z,87.44
2018-12-20T02:55:21.878Z,87.24
2018-12-20T02:56:21.891Z,87.24
2018-12-20T02:57:21.797Z,87.24
2018-12-20T02:58:21.797Z,87.54
2018-12-20T02:59:21.784Z,87.65
2018-12-20T03:00:21.884Z,87.54
2018-12-20T03:01:22.044Z,87.34
2018-12-20T03:02:21.828Z,87.44
2018-12-20T03:03:21.878Z,87.38
2018-12-20T03:04:21.802Z,87.13
2018-12-20T03:05:21.706Z,87.03
2018-12-20T03:06:21.668Z,87.54
2018-12-20T03:07:21.726Z,87.44
2018-12-20T03:08:21.770Z,86.93
2018-12-20T03:09:21.835Z,86.82
2018-12-20T03:10:21.658Z,87.03
2018-12-20T03:11:21.679Z,87.34
2018-12-20T03:12:21.767Z,87.24
2018-12-20T03:13:21.699Z,86.82
2018-12-20T03:14:21.643Z,87.13
2018-12-20T03:15:21.596Z,86.82
2018-12-20T03:16:21.622Z,86.61
2018-12-20T03:17:21.890Z,86.93
2018-12-20T03:18:21.573Z,86.10
2018-12-20T03:19:21.540Z,87.03
2018-12-20T03:20:21.512Z,86.37
2018-12-20T03:21:21.551Z,86.72
2018-12-20T03:22:21.673Z,86.27
2018-12-20T03:23:21.480Z,86.00
2018-12-20T03:24:21.780Z,86.68
2018-12-20T03:25:21.631Z,86.61
2018-12-20T03:26:21.506Z,85.86
2018-12-20T03:27:21.577Z,86.82
2018-12-20T03:28:21.570Z,86.99
2018-12-20T03:29:21.415Z,86.06
2018-12-20T03:30:21.506Z,86.37
2018-12-20T03:31:21.395Z,86.88
2018-12-20T03:32:21.747Z,85.96
2018-12-20T03:33:21.372Z,85.75
2018-12-20T03:34:21.561Z,85.96
2018-12-20T03:35:21.403Z,85.75
2018-12-20T03:36:21.349Z,86.88
2018-12-20T03:37:21.342Z,86.58
2018-12-20T03:38:21.313Z,85.96
2018-12-20T03:39:21.332Z,86.58
2018-12-20T03:40:21.309Z,86.37
2018-12-20T03:41:21.400Z,85.86
2018-12-20T03:42:21.297Z,85.86
2018-12-20T03:43:21.343Z,86.88
2018-12-20T03:44:21.395Z,86.16
2018-12-20T03:45:28.351Z,86.27
2018-12-20T03:46:21.225Z,86.37
2018-12-20T03:47:21.275Z,86.06
2018-12-20T03:48:21.392Z,86.47
2018-12-20T03:49:21.198Z,86.99
2018-12-20T03:50:21.363Z,87.19
2018-12-20T03:51:21.170Z,86.99
2018-12-20T03:52:21.201Z,87.40
2018-12-20T03:53:21.165Z,86.99
2018-12-20T03:54:21.237Z,86.99
2018-12-20T03:55:21.185Z,86.88
2018-12-20T03:56:21.259Z,86.99
2018-12-20T03:57:21.118Z,86.16
2018-12-20T03:58:21.203Z,86.47
2018-12-20T03:59:21.123Z,86.47
2018-12-20T04:00:21.105Z,86.41
2018-12-20T04:01:21.103Z,86.37
2018-12-20T04:02:21.479Z,86.47
2018-12-20T04:03:21.238Z,86.68
2018-12-20T04:04:21.076Z,86.27
2018-12-20T04:05:21.015Z,86.27
2018-12-20T04:06:21.006Z,86.27
2018-12-20T04:07:21.233Z,86.47
2018-12-20T04:08:21.219Z,86.27
2018-12-20T04:09:21.039Z,86.37
2018-12-20T04:10:21.080Z,86.82
2018-12-20T04:11:20.945Z,86.37
2018-12-20T04:12:20.940Z,86.58
2018-12-20T04:13:20.945Z,86.99
2018-12-20T04:14:20.911Z,87.24
2018-12-20T04:15:20.942Z,86.88
2018-12-20T04:16:20.937Z,86.88
2018-12-20T04:17:20.883Z,86.37
2018-12-20T04:18:21.001Z,86.37
2018-12-20T04:19:21.092Z,85.86
2018-12-20T04:20:20.885Z,86.58
2018-12-20T04:21:20.932Z,85.75
2018-12-20T04:22:21.071Z,85.71
2018-12-20T04:23:20.848Z,86.02
2018-12-20T04:24:20.869Z,85.34
2018-12-20T04:25:20.860Z,85.10
2018-12-20T04:26:20.861Z,85.82
2018-12-20T04:27:20.768Z,85.30
2018-12-20T04:28:21.003Z,85.30
2018-12-20T04:29:20.842Z,86.02
2018-12-20T04:30:20.924Z,85.86
2018-12-20T04:31:20.809Z,85.82
2018-12-20T04:32:20.711Z,85.61
2018-12-20T04:33:20.724Z,86.06
2018-12-20T04:34:20.703Z,86.64
2018-12-20T04:35:20.680Z,86.23
2018-12-20T04:36:20.963Z,85.96
2018-12-20T04:37:20.831Z,86.06
2018-12-20T04:38:20.681Z,86.16
2018-12-20T04:39:20.722Z,85.92
2018-12-20T04:40:20.758Z,85.96
2018-12-20T04:41:31.138Z,86.47
2018-12-20T04:42:20.813Z,86.33
2018-12-20T04:43:20.609Z,86.37
2018-12-20T04:44:20.579Z,86.37
2018-12-20T04:45:20.607Z,86.27
2018-12-20T04:46:20.563Z,86.16
2018-12-20T04:47:20.568Z,86.27
2018-12-20T04:48:20.720Z,86.23
2018-12-20T04:49:20.620Z,86.37
2018-12-20T04:50:29.758Z,86.47
2018-12-20T04:51:20.678Z,86.33
2018-12-20T04:52:20.681Z,85.96
2018-12-20T04:53:20.671Z,86.27
2018-12-20T04:54:20.469Z,86.27
2018-12-20T04:55:20.461Z,86.33
2018-12-20T04:56:20.500Z,86.37
2018-12-20T04:57:20.437Z,86.47
2018-12-20T04:58:20.470Z,86.33
2018-12-20T04:59:20.772Z,86.33
2018-12-20T05:00:20.732Z,86.13
2018-12-20T05:01:20.489Z,86.47
2018-12-20T05:02:20.709Z,85.92
2018-12-20T05:03:20.483Z,86.99
2018-12-20T05:04:20.356Z,86.85
2018-12-20T05:05:20.384Z,87.05
2018-12-20T05:06:20.336Z,86.79
2018-12-20T05:07:20.399Z,87.09
2018-12-20T05:08:20.384Z,86.06
2018-12-20T05:09:20.301Z,86.27
2018-12-20T05:10:20.320Z,87.15
2018-12-20T05:11:20.345Z,87.15
2018-12-20T05:12:20.292Z,87.19
2018-12-20T05:13:20.417Z,87.19
2018-12-20T05:14:20.495Z,86.79
2018-12-20T05:15:20.325Z,87.30
2018-12-20T05:16:20.431Z,87.40
2018-12-20T05:17:20.376Z,87.36
2018-12-20T05:18:20.239Z,86.43
2018-12-20T05:19:20.190Z,86.79
2018-12-20T05:20:20.512Z,87.05
2018-12-20T05:21:20.264Z,86.95
2018-12-20T05:22:20.298Z,86.85
2018-12-20T05:23:20.240Z,87.40
2018-12-20T05:24:20.150Z,87.46
2018-12-20T05:25:20.204Z,87.26
2018-12-20T05:26:20.260Z,87.46
2018-12-20T05:27:20.453Z,87.26
2018-12-20T05:28:20.140Z,86.88
2018-12-20T05:29:20.125Z,86.95
2018-12-20T05:30:20.226Z,87.30
2018-12-20T05:31:20.087Z,87.30
2018-12-20T05:32:20.057Z,87.57
2018-12-20T05:33:20.417Z,87.40
2018-12-20T05:34:20.108Z,87.40
2018-12-20T05:35:20.065Z,87.71
2018-12-20T05:36:20.123Z,87.40
2018-12-20T05:37:20.045Z,88.33
2018-12-20T05:38:20.041Z,88.02
2018-12-20T05:39:20.023Z,87.92
2018-12-20T05:40:20.036Z,88.33
2018-12-20T05:41:19.951Z,87.81
2018-12-20T05:42:20.295Z,88.23
2018-12-20T05:43:19.946Z,88.12
2018-12-20T05:44:19.936Z,88.23
2018-12-20T05:45:19.906Z,88.53
2018-12-20T05:46:20.082Z,88.06
2018-12-20T05:47:19.880Z,88.33
2018-12-20T05:48:20.058Z,89.09
2018-12-20T05:49:19.861Z,88.89
2018-12-20T05:50:19.849Z,89.09
2018-12-20T05:51:19.851Z,88.68
2018-12-20T05:52:19.967Z,88.78
2018-12-20T05:53:19.977Z,89.09
2018-12-20T05:54:20.002Z,89.09
2018-12-20T05:55:20.007Z,88.99
2018-12-20T05:56:19.884Z,88.72
2018-12-20T05:57:19.773Z,88.99
2018-12-20T05:58:19.831Z,88.92
2018-12-20T05:59:19.876Z,88.99
2018-12-20T06:00:19.768Z,88.62
2018-12-20T06:01:28.108Z,88.89
2018-12-20T06:02:19.896Z,89.09
2018-12-20T06:04:14.021Z,88.17
2018-12-20T06:05:14.005Z,88.78
2018-12-20T06:06:14.128Z,88.78
2018-12-20T06:07:14.135Z,88.47
2018-12-20T06:08:13.958Z,88.20
2018-12-20T06:09:13.965Z,88.10
2018-12-20T06:10:14.154Z,88.82
2018-12-20T06:11:13.997Z,88.72
2018-12-20T06:12:13.948Z,89.28
2018-12-20T06:13:14.142Z,89.03
2018-12-20T06:14:14.455Z,88.76
2018-12-20T06:15:13.939Z,89.23
2018-12-20T06:16:13.887Z,89.13
2018-12-20T06:17:14.040Z,89.03
2018-12-20T06:18:13.934Z,89.13
2018-12-20T06:19:13.851Z,89.28
2018-12-20T06:20:13.858Z,88.10
2018-12-20T06:21:13.859Z,88.14
2018-12-20T06:22:14.024Z,89.28
2018-12-20T06:23:13.786Z,88.86
2018-12-20T06:24:13.799Z,89.17
2018-12-20T06:25:13.771Z,89.28
2018-12-20T06:26:13.752Z,88.86
2018-12-20T06:27:23.640Z,89.28
2018-12-20T06:28:13.730Z,88.14
2018-12-20T06:29:13.737Z,88.14
2018-12-20T06:30:13.709Z,88.35
2018-12-20T06:31:13.697Z,89.28
2018-12-20T06:32:13.687Z,89.32
2018-12-20T06:33:13.675Z,89.32
2018-12-20T06:34:22.139Z,88.18
2018-12-20T06:35:13.655Z,88.18
2018-12-20T06:36:13.644Z,88.35
2018-12-20T06:37:13.634Z,89.01
2018-12-20T06:38:13.630Z,88.90
2018-12-20T06:39:13.629Z,88.70
2018-12-20T06:40:13.601Z,88.76
2018-12-20T06:41:13.587Z,88.70
2018-12-20T06:42:13.574Z,88.59
2018-12-20T06:43:13.567Z,87.98
2018-12-20T06:44:13.573Z,88.49
2018-12-20T06:45:13.542Z,89.11
2018-12-20T06:46:20.852Z,89.22
2018-12-20T06:47:13.524Z,88.84
2018-12-20T06:48:13.508Z,89.11
2018-12-20T06:49:13.519Z,89.11
2018-12-20T06:50:13.486Z,89.25
2018-12-20T06:51:13.478Z,89.05
2018-12-20T06:52:13.484Z,89.15
2018-12-20T06:53:13.457Z,89.22
2018-12-20T06:54:13.468Z,89.25
2018-12-20T06:55:13.430Z,89.22
2018-12-20T06:56:13.423Z,89.36
2018-12-20T06:57:13.407Z,89.25
2018-12-20T06:58:13.396Z,89.25
2018-12-20T06:59:13.406Z,88.64
2018-12-20T07:00:13.374Z,88.53
2018-12-20T07:01:22.822Z,88.43
2018-12-20T07:02:13.359Z,89.25
2018-12-20T07:03:13.342Z,89.25
2018-12-20T07:04:13.355Z,88.95
2018-12-20T07:05:13.319Z,88.95
2018-12-20T07:06:22.723Z,88.89
2018-12-20T07:07:13.295Z,88.06
2018-12-20T07:08:13.285Z,89.19
2018-12-20T07:09:13.295Z,89.19
2018-12-20T07:10:13.266Z,89.19
2018-12-20T07:11:13.253Z,88.78
2018-12-20T07:12:13.242Z,89.40
2018-12-20T07:13:13.230Z,89.61
2018-12-20T07:14:13.270Z,89.29
2018-12-20T07:15:13.208Z,88.89
2018-12-20T07:16:13.196Z,88.89
2018-12-20T07:17:13.185Z,89.19
2018-12-20T07:18:21.767Z,88.78
2018-12-20T07:19:13.181Z,88.98
2018-12-20T07:20:13.148Z,88.57
2018-12-20T07:21:13.138Z,87.48
2018-12-20T07:22:13.128Z,87.58
2018-12-20T07:23:13.115Z,87.79
2018-12-20T07:24:13.148Z,87.17
2018-12-20T07:25:13.107Z,87.17
2018-12-20T07:26:13.087Z,87.17
2018-12-20T07:27:13.071Z,87.48
2018-12-20T07:28:13.058Z,88.65
2018-12-20T07:29:13.048Z,88.86
2018-12-20T07:30:13.058Z,89.17
2018-12-20T07:31:13.026Z,89.28
2018-12-20T07:32:13.023Z,89.17
2018-12-20T07:33:13.017Z,89.54
2018-12-20T07:34:12.992Z,89.34
2018-12-20T07:35:13.000Z,89.34
2018-12-20T07:36:12.970Z,89.89
2018-12-20T07:37:12.960Z,89.38
2018-12-20T07:38:12.948Z,90.20
2018-12-20T07:39:12.939Z,90.52
2018-12-20T07:40:12.949Z,89.79
2018-12-20T07:41:12.918Z,89.75
2018-12-20T07:42:12.904Z,89.59
2018-12-20T07:43:12.891Z,89.95
2018-12-20T07:44:12.889Z,89.86
2018-12-20T07:45:12.899Z,89.54
2018-12-20T07:46:12.856Z,89.65
2018-12-20T07:47:12.846Z,90.26
2018-12-20T07:48:12.834Z,89.95
2018-12-20T07:49:12.830Z,90.47
2018-12-20T07:50:12.831Z,89.34
2018-12-20T07:51:12.800Z,90.47
2018-12-20T07:52:12.792Z,89.54
2018-12-20T07:53:12.782Z,89.71
2018-12-20T07:54:12.767Z,89.81
2018-12-20T07:55:12.779Z,89.81
2018-12-20T07:56:12.744Z,90.43
2018-12-20T07:57:12.732Z,90.22
2018-12-20T07:58:12.722Z,90.84
2018-12-20T07:59:12.711Z,90.33
2018-12-20T08:00:12.728Z,90.33
2018-12-20T08:01:12.690Z,90.08
2018-12-20T08:02:12.679Z,89.81
2018-12-20T08:03:12.668Z,89.61
2018-12-20T08:04:12.655Z,89.50
2018-12-20T08:05:12.665Z,89.71
2018-12-20T08:06:12.632Z,89.50
2018-12-20T08:07:12.620Z,89.50
2018-12-20T08:08:12.613Z,89.61
2018-12-20T08:09:12.599Z,89.81
2018-12-20T08:10:12.608Z,90.12
2018-12-20T08:11:12.592Z,89.61
2018-12-20T08:12:12.569Z,89.71
2018-12-20T08:13:12.556Z,90.39
2018-12-20T08:14:12.543Z,90.74
2018-12-20T08:15:12.554Z,90.64
2018-12-20T08:16:12.520Z,90.74
2018-12-20T08:17:12.509Z,90.43
2018-12-20T08:18:12.500Z,90.64
2018-12-20T08:19:12.486Z,90.22
2018-12-20T08:20:12.493Z,90.43
2018-12-20T08:21:12.465Z,90.43
2018-12-20T08:22:12.456Z,90.39
2018-12-20T08:23:12.445Z,90.70
2018-12-20T08:24:12.433Z,90.49
2018-12-20T08:25:12.442Z,90.59
2018-12-20T08:26:12.409Z,90.49
2018-12-20T08:27:12.398Z,90.39
2018-12-20T08:28:12.386Z,90.28
2018-12-20T08:29:12.378Z,90.39
2018-12-20T08:30:12.384Z,90.45
2018-12-20T08:31:12.471Z,90.80
2018-12-20T08:32:12.343Z,90.59
2018-12-20T08:33:12.329Z,90.55
2018-12-20T08:34:12.321Z,90.45
2018-12-20T08:35:12.325Z,90.25
2018-12-20T08:36:12.295Z,90.25
2018-12-20T08:37:12.284Z,90.25
2018-12-20T08:38:12.274Z,90.04
2018-12-20T08:39:12.261Z,90.14
2018-12-20T08:40:12.273Z,89.83
2018-12-20T08:41:12.242Z,90.14
2018-12-20T08:42:12.233Z,90.04
2018-12-20T08:43:12.219Z,90.14
2018-12-20T08:44:12.206Z,90.25
2018-12-20T08:45:12.214Z,90.25
2018-12-20T08:46:12.189Z,90.86
2018-12-20T08:47:12.174Z,90.51
2018-12-20T08:48:12.161Z,90.41
2018-12-20T08:49:12.155Z,90.31
2018-12-20T08:50:12.158Z,90.10
2018-12-20T08:51:12.127Z,90.61
2018-12-20T08:52:12.116Z,90.10
2018-12-20T08:53:12.106Z,89.89
2018-12-20T08:54:12.102Z,90.51
2018-12-20T08:55:12.106Z,90.41
2018-12-20T08:56:12.074Z,90.41
2018-12-20T08:57:12.064Z,90.31
2018-12-20T08:58:12.051Z,90.41
2018-12-20T08:59:12.039Z,90.41
2018-12-20T09:00:12.047Z,90.51
2018-12-20T09:01:12.018Z,90.41
2018-12-20T09:02:12.026Z,90.31
2018-12-20T09:03:11.994Z,90.31
2018-12-20T09:04:11.990Z,90.20
2018-12-20T09:05:11.994Z,90.47
2018-12-20T09:06:11.963Z,90.37
2018-12-20T09:07:11.951Z,90.47
2018-12-20T09:08:11.995Z,90.16
2018-12-20T09:09:11.927Z,90.06
2018-12-20T09:10:12.031Z,90.47
2018-12-20T09:11:11.909Z,89.85
2018-12-20T09:12:11.893Z,90.06
2018-12-20T09:13:11.883Z,90.06
2018-12-20T09:14:11.878Z,90.57
2018-12-20T09:15:11.891Z,89.85
2018-12-20T09:16:11.849Z,90.26
2018-12-20T09:17:11.838Z,91.09
2018-12-20T09:18:11.829Z,90.53
2018-12-20T09:19:11.815Z,90.37
2018-12-20T09:20:11.804Z,89.91
2018-12-20T09:21:11.812Z,89.54
2018-12-20T09:22:11.784Z,89.61
2018-12-20T09:23:11.775Z,89.71
2018-12-20T09:24:11.759Z,89.61
2018-12-20T09:25:11.750Z,89.50
2018-12-20T09:26:11.763Z,89.81
2018-12-20T09:27:11.726Z,89.61
2018-12-20T09:28:11.717Z,89.40
2018-12-20T09:29:11.704Z,89.91
2018-12-20T09:30:11.695Z,89.71
2018-12-20T09:31:11.704Z,90.01
2018-12-20T09:32:11.676Z,90.43
2018-12-20T09:33:11.661Z,89.46
2018-12-20T09:34:11.651Z,89.29
2018-12-20T09:35:11.641Z,89.40
2018-12-20T09:36:11.681Z,89.05
2018-12-20T09:37:11.615Z,88.95
2018-12-20T09:38:11.605Z,88.57
2018-12-20T09:39:11.592Z,89.19
2018-12-20T09:40:11.584Z,89.15
2018-12-20T09:41:11.600Z,88.74
2018-12-20T09:42:11.560Z,88.64
2018-12-20T09:43:11.549Z,88.74
2018-12-20T09:44:11.539Z,89.05
2018-12-20T09:45:11.526Z,89.15
2018-12-20T09:46:11.539Z,89.25
2018-12-20T09:47:12.180Z,88.68
2018-12-20T09:48:11.494Z,88.95
2018-12-20T09:49:11.483Z,88.95
2018-12-20T09:50:11.471Z,89.15
2018-12-20T09:51:11.486Z,89.05
2018-12-20T09:52:11.447Z,88.43
2018-12-20T09:53:11.441Z,88.02
2018-12-20T09:54:11.427Z,89.15
2018-12-20T09:55:11.417Z,89.15
2018-12-20T09:56:11.422Z,88.43
2018-12-20T09:57:11.394Z,88.84
2018-12-20T09:58:11.380Z,89.01
2018-12-20T09:59:11.374Z,89.15
2018-12-20T10:00:11.357Z,89.05
2018-12-20T10:01:11.366Z,88.43
2018-12-20T10:02:11.336Z,87.81
2018-12-20T10:03:11.324Z,87.92
2018-12-20T10:04:11.314Z,88.33
2018-12-20T10:05:11.306Z,88.33
2018-12-20T10:06:19.771Z,87.92
2018-12-20T10:07:11.528Z,88.33
2018-12-20T10:08:11.326Z,88.39
2018-12-20T10:09:11.261Z,88.23
2018-12-20T10:10:11.251Z,88.29
2018-12-20T10:11:11.256Z,88.49
2018-12-20T10:12:11.355Z,88.29
2018-12-20T10:13:11.216Z,87.05
2018-12-20T10:14:11.202Z,86.43
2018-12-20T10:15:11.193Z,86.74
2018-12-20T10:16:11.200Z,87.15
2018-12-20T10:17:11.172Z,87.46
2018-12-20T10:18:11.159Z,87.87
2018-12-20T10:19:11.150Z,87.52
2018-12-20T10:20:11.136Z,87.52
2018-12-20T10:21:11.147Z,87.52
2018-12-20T10:22:11.113Z,88.24
2018-12-20T10:23:11.101Z,88.35
2018-12-20T10:24:11.117Z,88.35
2018-12-20T10:25:11.096Z,87.22
2018-12-20T10:26:11.095Z,86.29
2018-12-20T10:27:11.057Z,85.88
2018-12-20T10:28:11.049Z,86.05
2018-12-20T10:29:11.037Z,86.40
2018-12-20T10:30:11.027Z,86.87
2018-12-20T10:31:11.033Z,86.80
2018-12-20T10:32:11.002Z,87.42
2018-12-20T10:33:11.048Z,86.70
2018-12-20T10:34:10.983Z,86.25
2018-12-20T10:35:10.970Z,86.46
2018-12-20T10:36:10.979Z,86.25
2018-12-20T10:37:10.947Z,85.94
2018-12-20T10:38:10.936Z,85.94
2018-12-20T10:39:10.977Z,85.63
2018-12-20T10:40:10.916Z,86.46
2018-12-20T10:41:10.924Z,86.35
2018-12-20T10:42:10.893Z,85.84
2018-12-20T10:43:10.879Z,85.08
2018-12-20T10:44:10.895Z,84.67
2018-12-20T10:45:10.858Z,84.16
2018-12-20T10:46:10.900Z,85.70
2018-12-20T10:47:10.839Z,84.36
2018-12-20T10:48:10.823Z,85.08
2018-12-20T10:49:10.815Z,84.56
2018-12-20T10:50:10.807Z,84.77
2018-12-20T10:51:10.812Z,84.36
2018-12-20T10:52:10.780Z,84.77
2018-12-20T10:53:10.769Z,85.70
2018-12-20T10:54:10.788Z,85.49
2018-12-20T10:55:10.746Z,84.36
2018-12-20T10:56:10.759Z,84.16
2018-12-20T10:57:10.724Z,84.16
2018-12-20T10:58:10.716Z,83.81
2018-12-20T10:59:10.701Z,84.26
2018-12-20T11:00:10.693Z,83.70
2018-12-20T11:01:10.706Z,84.22
2018-12-20T11:02:10.673Z,84.32
2018-12-20T11:03:10.659Z,84.47
2018-12-20T11:04:10.646Z,84.12
2018-12-20T11:05:10.638Z,84.42
2018-12-20T11:06:10.669Z,83.40
2018-12-20T11:07:10.615Z,83.61
2018-12-20T11:08:10.602Z,83.29
2018-12-20T11:09:10.592Z,84.22
2018-12-20T11:10:10.580Z,83.29
2018-12-20T11:11:10.567Z,81.86
2018-12-20T11:12:10.578Z,81.96
2018-12-20T11:13:10.567Z,81.24
2018-12-20T11:14:10.539Z,81.55
2018-12-20T11:15:10.522Z,81.76
2018-12-20T11:16:10.512Z,82.06
2018-12-20T11:17:10.523Z,82.06
2018-12-20T11:18:10.489Z,82.43
2018-12-20T11:19:10.509Z,82.37
2018-12-20T11:20:10.468Z,81.96
2018-12-20T11:21:10.463Z,81.92
2018-12-20T11:22:10.474Z,82.33
2018-12-20T11:23:10.433Z,82.50
2018-12-20T11:24:10.426Z,81.88
2018-12-20T11:25:10.427Z,80.24
2018-12-20T11:26:10.401Z,79.59
2018-12-20T11:27:10.410Z,78.97
2018-12-20T11:28:10.379Z,78.87
2018-12-20T11:29:10.369Z,79.18
2018-12-20T11:30:10.366Z,78.97
2018-12-20T11:31:11.074Z,78.67
2018-12-20T11:32:10.358Z,78.46
2018-12-20T11:33:10.323Z,78.67
2018-12-20T11:34:10.329Z,78.46
2018-12-20T11:35:10.338Z,77.03
2018-12-20T11:36:10.302Z,76.41
2018-12-20T11:37:10.309Z,77.54
2018-12-20T11:38:10.274Z,76.72
2018-12-20T11:40:03.926Z,75.90
2018-12-20T11:41:03.911Z,73.81
2018-12-20T11:42:03.924Z,74.22
2018-12-20T11:43:03.895Z,73.81
2018-12-20T11:44:03.879Z,74.22
2018-12-20T11:45:03.868Z,74.22
2018-12-20T11:46:03.855Z,73.50
2018-12-20T11:47:03.869Z,73.61
2018-12-20T11:48:03.832Z,73.74
2018-12-20T11:49:03.826Z,73.85
2018-12-20T11:50:03.848Z,73.64
2018-12-20T11:51:03.802Z,73.54
2018-12-20T11:52:03.837Z,73.23
2018-12-20T11:53:03.779Z,73.95
2018-12-20T11:54:03.767Z,73.54
2018-12-20T11:55:03.762Z,73.54
2018-12-20T11:56:03.745Z,73.13
2018-12-20T11:57:03.756Z,72.82
2018-12-20T11:58:03.723Z,73.23
2018-12-20T11:59:03.712Z,71.59
2018-12-20T12:00:03.703Z,72.51
2018-12-20T12:01:03.690Z,73.23
2018-12-20T12:02:03.701Z,72.61
2018-12-20T12:03:03.666Z,72.72
2018-12-20T12:04:03.656Z,72.10
2018-12-20T12:05:03.644Z,70.67
2018-12-20T12:06:03.635Z,72.61
2018-12-20T12:07:03.646Z,72.51
2018-12-20T12:08:03.617Z,73.54
2018-12-20T12:09:03.602Z,72.61
2018-12-20T12:10:05.405Z,72.10
2018-12-20T12:11:03.581Z,72.41
2018-12-20T12:12:03.601Z,72.41
2018-12-20T12:13:03.617Z,72.51
2018-12-20T12:14:03.544Z,73.33
2018-12-20T12:15:03.533Z,72.14
2018-12-20T12:16:03.522Z,72.61
2018-12-20T12:17:03.530Z,71.90
2018-12-20T12:18:03.505Z,71.59
2018-12-20T12:19:03.488Z,70.64
2018-12-20T12:20:03.477Z,70.40
2018-12-20T12:21:03.466Z,70.29
2018-12-20T12:22:03.474Z,69.68
2018-12-20T12:23:03.459Z,71.52
2018-12-20T12:24:03.437Z,71.49
2018-12-20T12:25:03.424Z,71.39
2018-12-20T12:26:03.411Z,70.47
2018-12-20T12:27:03.447Z,69.78
2018-12-20T12:28:03.423Z,69.89
2018-12-20T12:29:03.380Z,70.84
2018-12-20T12:30:03.366Z,71.25
2018-12-20T12:31:03.355Z,70.73
2018-12-20T12:32:03.416Z,70.84
2018-12-20T12:33:03.360Z,71.76
2018-12-20T12:34:03.326Z,70.84
2018-12-20T12:35:03.310Z,71.35
2018-12-20T12:36:03.302Z,70.81
2018-12-20T12:37:03.292Z,70.60
2018-12-20T12:38:03.299Z,71.28
2018-12-20T12:39:03.266Z,70.06
2018-12-20T12:40:03.257Z,69.54
2018-12-20T12:41:03.244Z,68.69
2018-12-20T12:42:03.235Z,68.49
2018-12-20T12:43:03.280Z,68.18
2018-12-20T12:44:03.275Z,67.67
2018-12-20T12:45:03.198Z,68.66
2018-12-20T12:46:03.188Z,68.15
2018-12-20T12:47:03.183Z,68.66
2018-12-20T12:48:04.010Z,69.04
2018-12-20T12:49:03.153Z,67.84
2018-12-20T12:50:03.143Z,68.22
2018-12-20T12:51:03.131Z,68.05
2018-12-20T12:52:03.125Z,68.66
2018-12-20T12:53:03.132Z,68.63
2018-12-20T12:54:03.100Z,67.71